Time,TemperatureF,DewpointF,PressureIn,WindDirection,WindDirectionDegrees,WindSpeedMPH,WindSpeedGustMPH,Humidity,HourlyPrecipIn,Conditions,Clouds,dailyrainin,SolarRadiationWatts/m^2,SoftwareType,DateUTC
2013-05-20 00:04:00,43.2,39.9,29.94,SW,235,3.0,3.0,88,0.00,,,0.00,0,Wunderground v.1.15,2013-05-20 06:04:00,
2013-05-20 00:10:00,43.2,39.9,29.94,SW,235,2.0,2.0,88,0.00,,,0.00,0,Wunderground v.1.15,2013-05-20 06:10:00,
2013-05-20 00:15:00,43.3,40.0,29.94,SW,235,2.0,2.0,88,0.00,,,0.01,0,Wunderground v.1.15,2013-05-20 06:15:00,
2013-05-20 00:21:00,43.3,40.0,29.94,SW,235,1.0,1.0,88,0.00,,,0.01,0,Wunderground v.1.15,2013-05-20 06:21:00,
2013-05-20 00:27:00,43.3,40.0,29.94,SW,236,3.0,4.0,88,0.00,,,0.01,0,Wunderground v.1.15,2013-05-20 06:27:00,
2013-05-20 00:33:00,43.3,40.0,29.94,WSW,245,2.0,4.0,88,0.00,,,0.01,0,Wunderground v.1.15,2013-05-20 06:33:00,
2013-05-20 00:38:00,43.4,40.1,29.94,WSW,245,0.0,4.0,88,0.00,,,0.01,0,Wunderground v.1.15,2013-05-20 06:38:00,
2013-05-20 00:51:00,43.5,40.2,29.94,WSW,245,0.0,1.0,88,0.00,,,0.01,0,Wunderground v.1.15,2013-05-20 06:51:00,
2013-05-20 01:02:00,43.6,40.0,29.93,WSW,245,3.0,3.0,87,0.00,,,0.01,0,Wunderground v.1.15,2013-05-20 07:02:00,
2013-05-20 01:07:00,43.6,40.0,29.93,WSW,245,3.0,3.0,87,0.00,,,0.01,0,Wunderground v.1.15,2013-05-20 07:07:00,
2013-05-20 01:13:00,43.7,40.1,29.93,WSW,245,0.0,2.0,87,0.00,,,0.02,0,Wunderground v.1.15,2013-05-20 07:13:00,
2013-05-20 01:18:00,43.7,40.1,29.93,WSW,245,1.0,2.0,87,0.00,,,0.02,0,Wunderground v.1.15,2013-05-20 07:18:00,
2013-05-20 01:23:00,43.7,40.1,29.94,WSW,245,2.0,2.0,87,0.00,,,0.02,0,Wunderground v.1.15,2013-05-20 07:23:00,
2013-05-20 01:29:00,43.7,40.1,29.94,WSW,245,2.0,2.0,87,0.00,,,0.02,0,Wunderground v.1.15,2013-05-20 07:29:00,
2013-05-20 01:35:00,43.7,40.4,29.94,WSW,245,2.0,2.0,88,0.00,,,0.03,0,Wunderground v.1.15,2013-05-20 07:35:00,
2013-05-20 01:41:00,43.6,40.3,29.94,WSW,245,3.0,4.0,88,0.17,,,0.05,0,Wunderground v.1.15,2013-05-20 07:41:00,
2013-05-20 01:46:00,43.5,40.2,29.94,WSW,245,1.0,3.0,88,0.13,,,0.06,0,Wunderground v.1.15,2013-05-20 07:46:00,
2013-05-20 01:51:00,43.5,40.2,29.94,WSW,245,2.0,3.0,88,0.09,,,0.07,0,Wunderground v.1.15,2013-05-20 07:51:00,
2013-05-20 01:57:00,43.4,40.1,29.94,WSW,245,3.0,3.0,88,0.12,,,0.08,0,Wunderground v.1.15,2013-05-20 07:57:00,
2013-05-20 02:02:00,43.4,40.4,29.94,WSW,245,0.0,2.0,89,0.08,,,0.08,0,Wunderground v.1.15,2013-05-20 08:02:00,
2013-05-20 02:07:00,43.4,40.4,29.94,WSW,245,1.0,2.0,89,0.05,,,0.08,0,Wunderground v.1.15,2013-05-20 08:07:00,
2013-05-20 02:12:00,43.4,40.4,29.94,WSW,245,2.0,2.0,89,0.05,,,0.09,0,Wunderground v.1.15,2013-05-20 08:12:00,
2013-05-20 02:17:00,43.4,40.4,29.94,WSW,245,2.0,3.0,89,0.05,,,0.09,0,Wunderground v.1.15,2013-05-20 08:17:00,
2013-05-20 02:22:00,43.4,40.4,29.94,WSW,245,1.0,3.0,89,0.04,,,0.09,0,Wunderground v.1.15,2013-05-20 08:22:00,
2013-05-20 02:27:00,43.4,40.4,29.93,WSW,245,2.0,3.0,89,0.00,,,0.09,0,Wunderground v.1.15,2013-05-20 08:27:00,
2013-05-20 02:32:00,43.4,40.4,29.94,WSW,245,1.0,2.0,89,0.00,,,0.09,0,Wunderground v.1.15,2013-05-20 08:32:00,
2013-05-20 02:37:00,43.5,40.5,29.94,WSW,245,1.0,2.0,89,0.00,,,0.09,0,Wunderground v.1.15,2013-05-20 08:37:00,
2013-05-20 02:42:00,43.5,40.8,29.94,WSW,245,3.0,3.0,90,0.00,,,0.09,0,Wunderground v.1.15,2013-05-20 08:42:00,
2013-05-20 02:47:00,43.6,40.9,29.94,WSW,245,3.0,4.0,90,0.00,,,0.09,0,Wunderground v.1.15,2013-05-20 08:47:00,
2013-05-20 02:52:00,43.6,40.9,29.94,WSW,245,1.0,3.0,90,0.00,,,0.09,0,Wunderground v.1.15,2013-05-20 08:52:00,
2013-05-20 02:57:00,43.6,40.9,29.94,WSW,245,0.0,3.0,90,0.00,,,0.09,0,Wunderground v.1.15,2013-05-20 08:57:00,
2013-05-20 03:02:00,43.7,40.7,29.94,WSW,245,0.0,2.0,89,0.00,,,0.09,0,Wunderground v.1.15,2013-05-20 09:02:00,
2013-05-20 03:07:00,43.7,40.7,29.94,WSW,245,0.0,2.0,89,0.00,,,0.09,0,Wunderground v.1.15,2013-05-20 09:07:00,
2013-05-20 03:12:00,43.7,40.7,29.94,WSW,245,1.0,1.0,89,0.00,,,0.09,0,Wunderground v.1.15,2013-05-20 09:12:00,
2013-05-20 03:17:00,43.7,40.7,29.94,WSW,245,3.0,3.0,89,0.00,,,0.09,0,Wunderground v.1.15,2013-05-20 09:17:00,
2013-05-20 03:22:00,43.7,40.7,29.94,WSW,245,0.0,1.0,89,0.00,,,0.09,0,Wunderground v.1.15,2013-05-20 09:22:00,
2013-05-20 03:27:00,43.8,41.1,29.94,WSW,245,0.0,1.0,90,0.00,,,0.10,0,Wunderground v.1.15,2013-05-20 09:27:00,
2013-05-20 03:32:00,43.8,41.1,29.94,WSW,245,0.0,3.0,90,0.00,,,0.10,0,Wunderground v.1.15,2013-05-20 09:32:00,
2013-05-20 03:37:00,43.8,41.1,29.94,WSW,245,0.0,3.0,90,0.00,,,0.10,0,Wunderground v.1.15,2013-05-20 09:37:00,
2013-05-20 03:42:00,43.8,41.1,29.94,WSW,245,0.0,3.0,90,0.00,,,0.10,0,Wunderground v.1.15,2013-05-20 09:42:00,
2013-05-20 03:47:00,43.8,41.1,29.95,WSW,245,1.0,3.0,90,0.00,,,0.11,0,Wunderground v.1.15,2013-05-20 09:47:00,
2013-05-20 03:52:00,43.8,41.1,29.95,WSW,245,0.0,3.0,90,0.00,,,0.11,0,Wunderground v.1.15,2013-05-20 09:52:00,
2013-05-20 03:57:00,43.8,41.1,29.95,WSW,245,2.0,3.0,90,0.13,,,0.13,0,Wunderground v.1.15,2013-05-20 09:57:00,
2013-05-20 04:02:00,43.9,40.9,29.95,West,271,1.0,5.0,89,0.11,,,0.13,0,Wunderground v.1.15,2013-05-20 10:02:00,
2013-05-20 04:07:00,44.0,41.0,29.95,West,280,3.0,8.0,89,0.06,,,0.13,0,Wunderground v.1.15,2013-05-20 10:07:00,
2013-05-20 04:12:00,44.2,40.9,29.95,West,280,1.0,4.0,88,0.04,,,0.13,0,Wunderground v.1.15,2013-05-20 10:12:00,
2013-05-20 04:17:00,44.3,41.0,29.95,West,280,2.0,5.0,88,0.00,,,0.13,0,Wunderground v.1.15,2013-05-20 10:17:00,
2013-05-20 04:23:00,44.3,40.7,29.95,West,280,1.0,3.0,87,0.00,,,0.13,0,Wunderground v.1.15,2013-05-20 10:23:00,
2013-05-20 04:28:00,44.3,40.7,29.95,West,280,0.0,3.0,87,0.00,,,0.13,0,Wunderground v.1.15,2013-05-20 10:28:00,
2013-05-20 04:33:00,44.3,40.7,29.95,West,280,0.0,2.0,87,0.00,,,0.13,0,Wunderground v.1.15,2013-05-20 10:33:00,
2013-05-20 04:38:00,44.2,40.6,29.95,West,280,0.0,3.0,87,0.00,,,0.13,0,Wunderground v.1.15,2013-05-20 10:38:00,
2013-05-20 04:43:00,44.2,40.6,29.95,West,280,1.0,3.0,87,0.00,,,0.13,0,Wunderground v.1.15,2013-05-20 10:43:00,
2013-05-20 04:48:00,44.2,40.6,29.95,West,280,1.0,3.0,87,0.00,,,0.13,0,Wunderground v.1.15,2013-05-20 10:48:00,
2013-05-20 04:53:00,44.2,40.6,29.95,West,280,0.0,1.0,87,0.00,,,0.13,0,Wunderground v.1.15,2013-05-20 10:53:00,
2013-05-20 04:58:00,44.1,40.5,29.95,West,280,1.0,3.0,87,0.00,,,0.14,0,Wunderground v.1.15,2013-05-20 10:58:00,
2013-05-20 05:03:00,44.1,40.5,29.95,West,280,2.0,2.0,87,0.00,,,0.14,0,Wunderground v.1.15,2013-05-20 11:03:00,
2013-05-20 05:08:00,44.0,40.4,29.95,West,280,0.0,2.0,87,0.00,,,0.14,0,Wunderground v.1.15,2013-05-20 11:08:00,
2013-05-20 05:13:00,44.0,40.4,29.95,West,280,3.0,3.0,87,0.00,,,0.14,0,Wunderground v.1.15,2013-05-20 11:13:00,
2013-05-20 05:18:00,44.0,40.7,29.96,West,280,0.0,3.0,88,0.00,,,0.14,0,Wunderground v.1.15,2013-05-20 11:18:00,
2013-05-20 05:23:00,44.0,40.7,29.96,West,280,0.0,2.0,88,0.00,,,0.15,0,Wunderground v.1.15,2013-05-20 11:23:00,
2013-05-20 05:28:00,44.0,40.7,29.96,West,280,3.0,3.0,88,0.07,,,0.16,0,Wunderground v.1.15,2013-05-20 11:28:00,
2013-05-20 05:33:00,43.9,40.6,29.96,West,280,1.0,5.0,88,0.07,,,0.16,0,Wunderground v.1.15,2013-05-20 11:33:00,
2013-05-20 05:38:00,43.9,40.6,29.96,West,280,3.0,5.0,88,0.05,,,0.16,0,Wunderground v.1.15,2013-05-20 11:38:00,
2013-05-20 05:44:00,43.8,40.5,29.96,West,280,1.0,3.0,88,0.04,,,0.17,0,Wunderground v.1.15,2013-05-20 11:44:00,
2013-05-20 05:49:00,43.8,40.8,29.96,West,280,1.0,3.0,89,0.04,,,0.17,0,Wunderground v.1.15,2013-05-20 11:49:00,
2013-05-20 05:54:00,43.8,40.8,29.97,West,280,1.0,3.0,89,0.05,,,0.18,0,Wunderground v.1.15,2013-05-20 11:54:00,
2013-05-20 05:59:00,43.8,40.8,29.97,West,280,1.0,3.0,89,0.05,,,0.18,0,Wunderground v.1.15,2013-05-20 11:59:00,
2013-05-20 06:04:00,43.8,40.8,29.97,West,280,1.0,3.0,89,0.05,,,0.18,0,Wunderground v.1.15,2013-05-20 12:04:00,
2013-05-20 06:09:00,43.8,40.8,29.97,West,280,2.0,3.0,89,0.05,,,0.19,0,Wunderground v.1.15,2013-05-20 12:09:00,
2013-05-20 06:14:00,43.7,40.7,29.97,West,280,2.0,5.0,89,0.07,,,0.20,0,Wunderground v.1.15,2013-05-20 12:14:00,
2013-05-20 06:19:00,43.7,40.7,29.97,West,280,5.0,5.0,89,0.07,,,0.20,0,Wunderground v.1.15,2013-05-20 12:19:00,
2013-05-20 06:24:00,43.7,40.7,29.97,West,280,6.0,6.0,89,0.09,,,0.21,0,Wunderground v.1.15,2013-05-20 12:24:00,
2013-05-20 06:29:00,43.8,40.8,29.97,West,280,1.0,6.0,89,0.22,,,0.23,0,Wunderground v.1.15,2013-05-20 12:29:00,
2013-05-20 06:34:00,43.8,40.8,29.98,West,280,1.0,2.0,89,0.20,,,0.25,0,Wunderground v.1.15,2013-05-20 12:34:00,
2013-05-20 06:40:00,43.8,40.8,29.98,West,280,2.0,2.0,89,0.10,,,0.25,7,Wunderground v.1.15,2013-05-20 12:40:00,
2013-05-20 06:45:00,43.7,40.7,29.98,West,280,2.0,3.0,89,0.07,,,0.26,9,Wunderground v.1.15,2013-05-20 12:45:00,
2013-05-20 06:50:00,43.8,40.8,29.98,West,280,3.0,3.0,89,0.07,,,0.26,5,Wunderground v.1.15,2013-05-20 12:50:00,
2013-05-20 06:55:00,43.8,41.1,29.98,West,281,3.0,5.0,90,0.05,,,0.26,11,Wunderground v.1.15,2013-05-20 12:55:00,
2013-05-20 07:00:00,43.9,41.2,29.99,West,281,3.0,3.0,90,0.04,,,0.26,14,Wunderground v.1.15,2013-05-20 13:00:00,
2013-05-20 07:05:00,43.9,41.2,29.99,West,281,3.0,5.0,90,0.00,,,0.26,14,Wunderground v.1.15,2013-05-20 13:05:00,
2013-05-20 07:10:00,44.0,41.3,29.99,West,281,2.0,3.0,90,0.00,,,0.26,14,Wunderground v.1.15,2013-05-20 13:10:00,
2013-05-20 07:15:00,44.1,41.4,29.99,West,281,3.0,3.0,90,0.00,,,0.27,14,Wunderground v.1.15,2013-05-20 13:15:00,
2013-05-20 07:20:00,44.2,41.5,29.99,West,281,2.0,3.0,90,0.00,,,0.27,9,Wunderground v.1.15,2013-05-20 13:20:00,
2013-05-20 07:25:00,44.2,41.5,29.99,West,281,2.0,5.0,90,0.00,,,0.27,19,Wunderground v.1.15,2013-05-20 13:25:00,
2013-05-20 07:30:00,44.3,41.6,29.99,West,281,2.0,2.0,90,0.00,,,0.27,33,Wunderground v.1.15,2013-05-20 13:30:00,
2013-05-20 07:35:00,44.4,41.7,29.99,West,281,2.0,3.0,90,0.00,,,0.27,30,Wunderground v.1.15,2013-05-20 13:35:00,
2013-05-20 07:40:00,44.4,41.7,29.99,West,281,2.0,3.0,90,0.00,,,0.27,37,Wunderground v.1.15,2013-05-20 13:40:00,
2013-05-20 07:46:00,44.5,41.7,30.00,West,281,1.0,3.0,90,0.00,,,0.27,47,Wunderground v.1.15,2013-05-20 13:46:00,
2013-05-20 07:52:00,44.6,42.1,30.00,West,281,1.0,1.0,91,0.00,,,0.27,46,Wunderground v.1.15,2013-05-20 13:52:00,
2013-05-20 07:57:00,44.7,42.2,30.00,West,281,1.0,2.0,91,0.00,,,0.27,51,Wunderground v.1.15,2013-05-20 13:57:00,
2013-05-20 08:02:00,44.9,42.4,30.00,West,281,1.0,2.0,91,0.00,,,0.27,54,Wunderground v.1.15,2013-05-20 14:02:00,
2013-05-20 08:07:00,45.0,42.5,30.00,West,281,0.0,2.0,91,0.00,,,0.27,65,Wunderground v.1.15,2013-05-20 14:07:00,
2013-05-20 08:12:00,45.0,42.2,30.00,West,281,0.0,1.0,90,0.00,,,0.27,51,Wunderground v.1.15,2013-05-20 14:12:00,
2013-05-20 08:17:00,45.0,42.5,30.00,West,281,0.0,1.0,91,0.00,,,0.27,51,Wunderground v.1.15,2013-05-20 14:17:00,
2013-05-20 08:22:00,45.1,42.6,30.00,West,281,0.0,0.0,91,0.00,,,0.27,51,Wunderground v.1.15,2013-05-20 14:22:00,
2013-05-20 08:27:00,45.2,42.7,30.00,West,281,3.0,3.0,91,0.00,,,0.27,46,Wunderground v.1.15,2013-05-20 14:27:00,
2013-05-20 08:32:00,45.2,42.4,30.00,West,281,2.0,3.0,90,0.00,,,0.27,46,Wunderground v.1.15,2013-05-20 14:32:00,
2013-05-20 08:37:00,45.2,42.4,30.00,West,281,3.0,5.0,90,0.00,,,0.27,46,Wunderground v.1.15,2013-05-20 14:37:00,
2013-05-20 08:42:00,45.3,42.0,30.00,West,276,3.0,6.0,88,0.00,,,0.27,42,Wunderground v.1.15,2013-05-20 14:42:00,
2013-05-20 08:47:00,45.5,41.9,30.00,West,277,5.0,7.0,87,0.00,,,0.27,44,Wunderground v.1.15,2013-05-20 14:47:00,
2013-05-20 08:52:00,45.7,41.8,30.00,West,272,8.0,8.0,86,0.00,,,0.27,56,Wunderground v.1.15,2013-05-20 14:52:00,
2013-05-20 08:57:00,46.1,41.2,30.00,West,275,6.0,8.0,83,0.00,,,0.27,72,Wunderground v.1.15,2013-05-20 14:57:00,
2013-05-20 09:02:00,46.3,41.1,30.00,West,274,3.0,7.0,82,0.00,,,0.27,62,Wunderground v.1.15,2013-05-20 15:02:00,
2013-05-20 09:07:00,46.5,41.3,30.00,West,272,2.0,7.0,82,0.00,,,0.27,90,Wunderground v.1.15,2013-05-20 15:07:00,
2013-05-20 09:12:00,46.6,41.4,30.00,West,272,2.0,4.0,82,0.00,,,0.27,107,Wunderground v.1.15,2013-05-20 15:12:00,
2013-05-20 09:17:00,46.7,41.2,30.00,West,272,2.0,5.0,81,0.00,,,0.27,139,Wunderground v.1.15,2013-05-20 15:17:00,
2013-05-20 09:22:00,46.8,41.3,30.00,West,272,0.0,3.0,81,0.00,,,0.27,142,Wunderground v.1.15,2013-05-20 15:22:00,
2013-05-20 09:28:00,47.1,42.5,30.01,West,272,0.0,3.0,84,0.00,,,0.27,135,Wunderground v.1.15,2013-05-20 15:28:00,
2013-05-20 09:33:00,47.2,42.9,30.01,West,272,0.0,2.0,85,0.00,,,0.27,146,Wunderground v.1.15,2013-05-20 15:33:00,
2013-05-20 09:38:00,47.1,42.8,30.00,West,272,1.0,3.0,85,0.00,,,0.27,151,Wunderground v.1.15,2013-05-20 15:38:00,
2013-05-20 09:43:00,47.0,42.4,30.00,West,272,2.0,5.0,84,0.00,,,0.27,134,Wunderground v.1.15,2013-05-20 15:43:00,
2013-05-20 09:48:00,47.1,42.5,30.00,West,272,2.0,5.0,84,0.00,,,0.27,139,Wunderground v.1.15,2013-05-20 15:48:00,
2013-05-20 09:53:00,47.1,42.5,30.00,West,272,0.0,2.0,84,0.00,,,0.27,137,Wunderground v.1.15,2013-05-20 15:53:00,
2013-05-20 09:58:00,47.1,42.2,30.00,West,272,2.0,3.0,83,0.00,,,0.27,165,Wunderground v.1.15,2013-05-20 15:58:00,
2013-05-20 10:03:00,47.2,42.3,30.00,West,272,1.0,3.0,83,0.00,,,0.27,158,Wunderground v.1.15,2013-05-20 16:03:00,
2013-05-20 10:08:00,47.3,41.8,30.00,SW,223,3.0,6.0,81,0.00,,,0.27,137,Wunderground v.1.15,2013-05-20 16:08:00,
2013-05-20 10:13:00,47.4,41.9,30.00,SW,221,1.0,3.0,81,0.00,,,0.27,160,Wunderground v.1.15,2013-05-20 16:13:00,
2013-05-20 10:18:00,47.6,42.7,30.00,SW,221,0.0,3.0,83,0.00,,,0.27,200,Wunderground v.1.15,2013-05-20 16:18:00,
2013-05-20 10:23:00,47.8,42.6,30.00,SW,221,3.0,4.0,82,0.00,,,0.27,364,Wunderground v.1.15,2013-05-20 16:23:00,
2013-05-20 10:28:00,48.0,42.8,30.00,South,185,4.0,4.0,82,0.00,,,0.27,272,Wunderground v.1.15,2013-05-20 16:28:00,
2013-05-20 10:33:00,48.2,42.3,30.00,SSE,152,3.0,5.0,80,0.00,,,0.27,318,Wunderground v.1.15,2013-05-20 16:33:00,
2013-05-20 10:38:00,48.6,43.0,30.00,SE,141,4.0,6.0,81,0.00,,,0.27,216,Wunderground v.1.15,2013-05-20 16:38:00,
2013-05-20 10:43:00,48.8,42.6,30.00,SSE,151,2.0,5.0,79,0.00,,,0.27,167,Wunderground v.1.15,2013-05-20 16:43:00,
2013-05-20 10:48:00,48.8,42.6,30.00,South,170,5.0,5.0,79,0.00,,,0.27,167,Wunderground v.1.15,2013-05-20 16:48:00,
2013-05-20 10:53:00,48.7,42.1,30.00,South,189,3.0,6.0,78,0.00,,,0.27,79,Wunderground v.1.15,2013-05-20 16:53:00,
2013-05-20 10:58:00,48.6,42.0,30.00,South,190,2.0,6.0,78,0.00,,,0.27,118,Wunderground v.1.15,2013-05-20 16:58:00,
2013-05-20 11:03:00,48.6,41.4,30.00,SSW,199,1.0,6.0,76,0.00,,,0.27,120,Wunderground v.1.15,2013-05-20 17:03:00,
2013-05-20 11:08:00,48.7,41.5,30.00,NNW,331,7.0,8.0,76,0.00,,,0.27,104,Wunderground v.1.15,2013-05-20 17:08:00,
2013-05-20 11:13:00,48.7,40.4,30.00,WNW,301,8.0,18.0,73,0.00,,,0.27,148,Wunderground v.1.15,2013-05-20 17:13:00,
2013-05-20 11:18:00,48.4,39.8,30.00,WNW,283,11.0,18.0,72,0.00,,,0.27,283,Wunderground v.1.15,2013-05-20 17:18:00,
2013-05-20 11:23:00,48.3,39.7,30.00,WNW,295,8.0,12.0,72,0.00,,,0.27,279,Wunderground v.1.15,2013-05-20 17:23:00,
2013-05-20 11:28:00,48.3,40.0,30.00,West,275,7.0,12.0,73,0.00,,,0.27,209,Wunderground v.1.15,2013-05-20 17:28:00,
2013-05-20 11:34:00,48.3,40.0,30.01,West,276,5.0,9.0,73,0.00,,,0.27,197,Wunderground v.1.15,2013-05-20 17:34:00,
2013-05-20 11:39:00,48.4,39.8,30.00,West,274,0.0,9.0,72,0.00,,,0.27,174,Wunderground v.1.15,2013-05-20 17:39:00,
2013-05-20 11:44:00,48.6,41.7,30.00,South,169,3.0,5.0,77,0.00,,,0.27,171,Wunderground v.1.15,2013-05-20 17:44:00,
2013-05-20 11:49:00,48.3,41.4,30.00,SE,127,3.0,7.0,77,0.00,,,0.27,176,Wunderground v.1.15,2013-05-20 17:49:00,
2013-05-20 11:54:00,48.2,41.0,30.00,SE,146,1.0,5.0,76,0.00,,,0.27,146,Wunderground v.1.15,2013-05-20 17:54:00,
2013-05-20 11:59:00,48.2,41.0,30.00,SSE,149,1.0,5.0,76,0.00,,,0.27,149,Wunderground v.1.15,2013-05-20 17:59:00,
2013-05-20 12:04:00,48.2,41.3,30.00,South,180,2.0,5.0,77,0.00,,,0.27,153,Wunderground v.1.15,2013-05-20 18:04:00,
2013-05-20 12:09:00,48.1,41.2,30.00,SW,224,7.0,9.0,77,0.00,,,0.27,123,Wunderground v.1.15,2013-05-20 18:09:00,
2013-05-20 12:14:00,48.2,40.6,29.99,SSW,196,6.0,6.0,75,0.00,,,0.27,98,Wunderground v.1.15,2013-05-20 18:14:00,
2013-05-20 12:19:00,48.2,40.6,29.99,SW,225,2.0,6.0,75,0.00,,,0.27,91,Wunderground v.1.15,2013-05-20 18:19:00,
2013-05-20 12:24:00,48.1,40.5,29.99,South,185,2.0,6.0,75,0.00,,,0.27,102,Wunderground v.1.15,2013-05-20 18:24:00,
2013-05-20 12:29:00,48.1,41.2,29.99,South,185,2.0,6.0,77,0.00,,,0.27,114,Wunderground v.1.15,2013-05-20 18:29:00,
2013-05-20 12:35:00,48.1,41.6,29.99,South,189,0.0,4.0,78,0.00,,,0.27,88,Wunderground v.1.15,2013-05-20 18:35:00,
2013-05-20 12:40:00,48.1,40.9,29.99,South,189,1.0,2.0,76,0.00,,,0.27,91,Wunderground v.1.15,2013-05-20 18:40:00,
2013-05-20 12:45:00,48.1,40.9,29.99,South,189,1.0,3.0,76,0.00,,,0.27,109,Wunderground v.1.15,2013-05-20 18:45:00,
2013-05-20 12:50:00,48.1,40.5,29.99,SW,223,1.0,2.0,75,0.00,,,0.27,120,Wunderground v.1.15,2013-05-20 18:50:00,
2013-05-20 12:55:00,48.2,40.6,29.99,SW,223,0.0,3.0,75,0.00,,,0.27,162,Wunderground v.1.15,2013-05-20 18:55:00,
2013-05-20 13:00:00,48.4,40.8,29.99,SW,223,0.0,1.0,75,0.00,,,0.27,100,Wunderground v.1.15,2013-05-20 19:00:00,
2013-05-20 13:05:00,48.5,40.6,29.99,SW,223,0.0,1.0,74,0.00,,,0.27,60,Wunderground v.1.15,2013-05-20 19:05:00,
2013-05-20 13:10:00,48.7,40.8,29.99,SW,223,1.0,3.0,74,0.00,,,0.27,67,Wunderground v.1.15,2013-05-20 19:10:00,
2013-05-20 13:15:00,48.8,42.9,30.00,SW,222,1.0,3.0,80,0.00,,,0.27,81,Wunderground v.1.15,2013-05-20 19:15:00,
2013-05-20 13:20:00,48.7,43.5,30.00,SW,222,0.0,1.0,82,0.00,,,0.27,60,Wunderground v.1.15,2013-05-20 19:20:00,
2013-05-20 13:25:00,48.2,42.6,30.01,WNW,291,0.0,7.0,81,0.00,,,0.28,51,Wunderground v.1.15,2013-05-20 19:25:00,
2013-05-20 13:30:00,47.2,42.0,30.02,ENE,69,5.0,5.0,82,0.09,,,0.29,56,Wunderground v.1.15,2013-05-20 19:30:00,
2013-05-20 13:35:00,46.4,42.1,30.02,East,91,4.0,8.0,85,0.12,,,0.30,58,Wunderground v.1.15,2013-05-20 19:35:00,
2013-05-20 13:41:00,46.0,42.0,30.03,ENE,64,0.0,3.0,86,0.11,,,0.31,58,Wunderground v.1.15,2013-05-20 19:41:00,
2013-05-20 13:47:00,45.7,42.1,30.03,ENE,72,1.0,4.0,87,0.18,,,0.33,65,Wunderground v.1.15,2013-05-20 19:47:00,
2013-05-20 13:52:00,45.0,41.4,30.02,SE,125,2.0,5.0,87,0.31,,,0.36,95,Wunderground v.1.15,2013-05-20 19:52:00,
2013-05-20 13:57:00,44.6,41.0,30.02,SSW,198,3.0,5.0,87,0.12,,,0.37,111,Wunderground v.1.15,2013-05-20 19:57:00,
2013-05-20 14:02:00,44.6,41.3,30.02,SW,234,4.0,8.0,88,0.15,,,0.38,183,Wunderground v.1.15,2013-05-20 20:02:00,
2013-05-20 14:07:00,44.6,41.3,30.01,SSW,208,1.0,8.0,88,0.15,,,0.39,207,Wunderground v.1.15,2013-05-20 20:07:00,
2013-05-20 14:12:00,44.7,41.7,30.01,SSE,164,2.0,4.0,89,0.08,,,0.39,276,Wunderground v.1.15,2013-05-20 20:12:00,
2013-05-20 14:17:00,45.0,42.0,30.01,SSE,162,3.0,6.0,89,0.05,,,0.39,213,Wunderground v.1.15,2013-05-20 20:17:00,
2013-05-20 14:22:00,44.9,41.6,30.01,South,185,6.0,7.0,88,0.00,,,0.39,281,Wunderground v.1.15,2013-05-20 20:22:00,
2013-05-20 14:27:00,45.0,41.4,30.01,South,191,7.0,10.0,87,0.00,,,0.39,308,Wunderground v.1.15,2013-05-20 20:27:00,
2013-05-20 14:32:00,45.2,41.0,30.00,South,185,5.0,9.0,85,0.00,,,0.39,439,Wunderground v.1.15,2013-05-20 20:32:00,
2013-05-20 14:37:00,45.8,41.5,30.00,SSE,149,2.0,9.0,85,0.00,,,0.39,374,Wunderground v.1.15,2013-05-20 20:37:00,
2013-05-20 14:42:00,46.0,41.7,30.00,South,175,10.0,10.0,85,0.00,,,0.39,287,Wunderground v.1.15,2013-05-20 20:42:00,
2013-05-20 14:47:00,45.9,41.3,30.00,South,170,6.0,11.0,84,0.00,,,0.39,220,Wunderground v.1.15,2013-05-20 20:47:00,
2013-05-20 14:52:00,45.9,41.6,30.00,SSW,195,6.0,8.0,85,0.00,,,0.39,264,Wunderground v.1.15,2013-05-20 20:52:00,
2013-05-20 14:57:00,45.7,41.4,30.00,SSW,193,4.0,10.0,85,0.00,,,0.39,278,Wunderground v.1.15,2013-05-20 20:57:00,
2013-05-20 15:02:00,45.8,41.2,30.00,SSE,164,5.0,10.0,84,0.00,,,0.39,237,Wunderground v.1.15,2013-05-20 21:02:00,
2013-05-20 15:07:00,45.9,41.6,30.00,South,171,4.0,10.0,85,0.00,,,0.39,243,Wunderground v.1.15,2013-05-20 21:07:00,
2013-05-20 15:12:00,46.0,41.4,30.00,SSE,152,5.0,8.0,84,0.00,,,0.39,255,Wunderground v.1.15,2013-05-20 21:12:00,
2013-05-20 15:17:00,46.1,41.2,30.00,South,189,7.0,11.0,83,0.00,,,0.39,237,Wunderground v.1.15,2013-05-20 21:17:00,
2013-05-20 15:23:00,46.3,41.4,30.00,South,185,5.0,9.0,83,0.00,,,0.39,264,Wunderground v.1.15,2013-05-20 21:23:00,
2013-05-20 15:28:00,46.6,41.7,30.00,South,185,4.0,9.0,83,0.00,,,0.39,178,Wunderground v.1.15,2013-05-20 21:28:00,
2013-05-20 15:33:00,46.9,41.4,30.00,South,170,6.0,8.0,81,0.00,,,0.39,156,Wunderground v.1.15,2013-05-20 21:33:00,
2013-05-20 15:38:00,47.0,41.5,30.00,WSW,246,5.0,10.0,81,0.00,,,0.39,155,Wunderground v.1.15,2013-05-20 21:38:00,
2013-05-20 15:43:00,47.1,41.2,30.00,WSW,247,4.0,8.0,80,0.00,,,0.39,234,Wunderground v.1.15,2013-05-20 21:43:00,
2013-05-20 15:48:00,47.4,41.5,30.00,SW,223,3.0,8.0,80,0.00,,,0.39,171,Wunderground v.1.15,2013-05-20 21:48:00,
2013-05-20 15:53:00,47.7,41.2,30.00,SSW,212,1.0,6.0,78,0.00,,,0.39,95,Wunderground v.1.15,2013-05-20 21:53:00,
2013-05-20 15:58:00,48.0,41.8,30.00,SSW,210,4.0,7.0,79,0.00,,,0.40,100,Wunderground v.1.15,2013-05-20 21:58:00,
2013-05-20 16:03:00,48.0,41.8,29.99,South,185,5.0,8.0,79,0.13,,,0.41,229,Wunderground v.1.15,2013-05-20 22:03:00,
2013-05-20 16:08:00,47.4,41.9,30.00,SSW,195,4.0,8.0,81,0.09,,,0.42,218,Wunderground v.1.15,2013-05-20 22:08:00,
2013-05-20 16:13:00,47.0,41.8,29.99,South,189,8.0,12.0,82,0.07,,,0.42,204,Wunderground v.1.15,2013-05-20 22:13:00,
2013-05-20 16:18:00,46.9,41.1,29.99,SSE,160,5.0,13.0,80,0.05,,,0.42,229,Wunderground v.1.15,2013-05-20 22:18:00,
2013-05-20 16:23:00,47.3,41.1,29.99,South,175,9.0,15.0,79,0.00,,,0.42,237,Wunderground v.1.15,2013-05-20 22:23:00,
2013-05-20 16:28:00,47.7,41.5,29.98,SSE,164,7.0,15.0,79,0.00,,,0.42,232,Wunderground v.1.15,2013-05-20 22:28:00,
2013-05-20 16:33:00,48.1,41.2,29.98,SSW,200,7.0,12.0,77,0.00,,,0.42,338,Wunderground v.1.15,2013-05-20 22:33:00,
2013-05-20 16:38:00,48.6,41.4,29.97,SSE,156,4.0,12.0,76,0.00,,,0.42,237,Wunderground v.1.15,2013-05-20 22:38:00,
2013-05-20 16:43:00,49.4,43.5,29.97,SSE,147,6.0,11.0,80,0.00,,,0.42,624,Wunderground v.1.15,2013-05-20 22:43:00,
2013-05-20 16:48:00,49.6,43.4,29.97,SSE,153,8.0,12.0,79,0.00,,,0.42,624,Wunderground v.1.15,2013-05-20 22:48:00,
2013-05-20 16:53:00,49.8,43.5,29.96,South,180,7.0,12.0,79,0.00,,,0.42,603,Wunderground v.1.15,2013-05-20 22:53:00,
2013-05-20 16:58:00,50.1,43.8,29.96,SE,137,8.0,12.0,79,0.00,,,0.42,591,Wunderground v.1.15,2013-05-20 22:58:00,
2013-05-20 17:03:00,50.3,43.7,29.95,ESE,105,7.0,13.0,78,0.00,,,0.42,582,Wunderground v.1.15,2013-05-20 23:03:00,
2013-05-20 17:08:00,50.8,43.5,29.95,ESE,118,7.0,13.0,76,0.00,,,0.42,582,Wunderground v.1.15,2013-05-20 23:08:00,
2013-05-20 17:14:00,51.2,42.8,29.95,SSE,152,9.0,11.0,73,0.00,,,0.42,587,Wunderground v.1.15,2013-05-20 23:14:00,
2013-05-20 17:19:00,51.6,43.2,29.95,South,175,5.0,11.0,73,0.00,,,0.42,309,Wunderground v.1.15,2013-05-20 23:19:00,
2013-05-20 17:24:00,52.4,42.1,29.95,South,175,3.0,8.0,68,0.00,,,0.42,624,Wunderground v.1.15,2013-05-20 23:24:00,
2013-05-20 17:29:00,52.9,43.0,29.95,SSW,197,9.0,10.0,69,0.00,,,0.42,276,Wunderground v.1.15,2013-05-20 23:29:00,
2013-05-20 17:34:00,52.9,41.4,29.95,SSW,194,6.0,8.0,65,0.00,,,0.42,292,Wunderground v.1.15,2013-05-20 23:34:00,
2013-05-20 17:39:00,53.0,42.3,29.95,SE,142,4.0,9.0,67,0.00,,,0.42,223,Wunderground v.1.15,2013-05-20 23:39:00,
2013-05-20 17:44:00,53.1,41.6,29.95,SW,214,0.0,7.0,65,0.00,,,0.42,123,Wunderground v.1.15,2013-05-20 23:44:00,
2013-05-20 17:49:00,53.2,42.9,29.96,East,97,4.0,7.0,68,0.00,,,0.42,46,Wunderground v.1.15,2013-05-20 23:49:00,
2013-05-20 17:54:00,52.9,43.7,29.98,NW,309,3.0,5.0,71,0.00,,,0.42,16,Wunderground v.1.15,2013-05-20 23:54:00,
2013-05-20 17:59:00,51.2,42.5,29.99,NE,46,8.0,9.0,72,0.25,,,0.44,16,Wunderground v.1.15,2013-05-20 23:59:00,
2013-05-20 18:04:00,48.2,41.0,29.98,NNW,327,8.0,23.0,76,0.18,,,0.45,19,Wunderground v.1.15,2013-05-21 00:04:00,
2013-05-20 18:09:00,46.8,40.6,30.00,ENE,62,12.0,23.0,79,0.23,,,0.47,21,Wunderground v.1.15,2013-05-21 00:09:00,
2013-05-20 18:14:00,46.4,40.6,30.01,NE,43,2.0,12.0,80,0.35,,,0.50,23,Wunderground v.1.15,2013-05-21 00:14:00,
2013-05-20 18:19:00,46.3,40.5,30.00,NNW,328,0.0,12.0,80,0.23,,,0.52,28,Wunderground v.1.15,2013-05-21 00:19:00,
2013-05-20 18:24:00,45.9,41.0,30.00,ESE,115,1.0,6.0,83,0.13,,,0.53,37,Wunderground v.1.15,2013-05-21 00:24:00,
2013-05-20 18:29:00,45.4,41.2,30.00,SSE,165,3.0,6.0,85,0.13,,,0.54,37,Wunderground v.1.15,2013-05-21 00:29:00,
2013-05-20 18:34:00,45.2,41.0,30.00,SW,221,6.0,8.0,85,0.06,,,0.54,42,Wunderground v.1.15,2013-05-21 00:34:00,
2013-05-20 18:39:00,45.1,40.9,29.99,South,185,4.0,8.0,85,0.05,,,0.55,32,Wunderground v.1.15,2013-05-21 00:39:00,
2013-05-20 18:44:00,45.0,41.1,29.99,South,180,9.0,9.0,86,0.05,,,0.55,30,Wunderground v.1.15,2013-05-21 00:44:00,
2013-05-20 18:49:00,45.0,40.5,29.99,SSE,160,6.0,11.0,84,0.05,,,0.55,35,Wunderground v.1.15,2013-05-21 00:49:00,
2013-05-20 18:54:00,45.1,39.3,29.99,South,180,9.0,12.0,80,0.00,,,0.55,33,Wunderground v.1.15,2013-05-21 00:54:00,
2013-05-20 18:59:00,45.3,39.8,29.99,SSW,201,5.0,12.0,81,0.00,,,0.55,40,Wunderground v.1.15,2013-05-21 00:59:00,
2013-05-20 19:05:00,45.3,39.8,29.99,SSW,206,4.0,8.0,81,0.00,,,0.55,40,Wunderground v.1.15,2013-05-21 01:05:00,
2013-05-20 19:10:00,45.2,40.0,29.99,South,170,4.0,4.0,82,0.00,,,0.55,49,Wunderground v.1.15,2013-05-21 01:10:00,
2013-05-20 19:15:00,45.0,40.5,29.99,SSE,149,6.0,9.0,84,0.00,,,0.55,58,Wunderground v.1.15,2013-05-21 01:15:00,
2013-05-20 19:20:00,44.7,40.5,29.99,SSE,164,6.0,7.0,85,0.00,,,0.55,60,Wunderground v.1.15,2013-05-21 01:20:00,
2013-05-20 19:25:00,44.7,40.5,29.99,SSW,212,2.0,9.0,85,0.00,,,0.55,67,Wunderground v.1.15,2013-05-21 01:25:00,
2013-05-20 19:30:00,44.8,40.6,29.99,SW,219,7.0,9.0,85,0.00,,,0.55,107,Wunderground v.1.15,2013-05-21 01:30:00,
2013-05-20 19:35:00,44.9,40.7,29.99,South,191,4.0,9.0,85,0.00,,,0.55,98,Wunderground v.1.15,2013-05-21 01:35:00,
2013-05-20 19:40:00,45.0,40.5,29.99,South,185,4.0,5.0,84,0.00,,,0.55,62,Wunderground v.1.15,2013-05-21 01:40:00,
2013-05-20 19:45:00,45.0,40.5,29.99,South,185,2.0,6.0,84,0.00,,,0.55,44,Wunderground v.1.15,2013-05-21 01:45:00,
2013-05-20 19:50:00,45.2,40.7,29.99,South,185,1.0,3.0,84,0.00,,,0.55,47,Wunderground v.1.15,2013-05-21 01:50:00,
2013-05-20 19:55:00,45.4,40.8,29.98,South,189,1.0,3.0,84,0.00,,,0.55,37,Wunderground v.1.15,2013-05-21 01:55:00,
2013-05-20 20:00:00,45.6,40.7,29.98,South,189,2.0,3.0,83,0.00,,,0.55,25,Wunderground v.1.15,2013-05-21 02:00:00,
2013-05-20 20:05:00,45.8,40.9,29.98,South,185,3.0,7.0,83,0.00,,,0.55,19,Wunderground v.1.15,2013-05-21 02:05:00,
2013-05-20 20:10:00,45.9,41.0,29.98,South,185,2.0,4.0,83,0.00,,,0.55,18,Wunderground v.1.15,2013-05-21 02:10:00,
2013-05-20 20:15:00,45.9,41.0,29.98,South,191,1.0,7.0,83,0.00,,,0.55,16,Wunderground v.1.15,2013-05-21 02:15:00,
2013-05-20 20:21:00,46.0,41.1,29.98,South,191,1.0,4.0,83,0.00,,,0.55,14,Wunderground v.1.15,2013-05-21 02:21:00,
2013-05-20 20:26:00,46.0,40.8,29.98,South,191,1.0,4.0,82,0.00,,,0.55,14,Wunderground v.1.15,2013-05-21 02:26:00,
2013-05-20 20:32:00,46.1,41.2,29.98,South,191,1.0,2.0,83,0.00,,,0.55,9,Wunderground v.1.15,2013-05-21 02:32:00,
2013-05-20 20:37:00,46.1,40.9,29.98,SSW,197,4.0,6.0,82,0.00,,,0.55,5,Wunderground v.1.15,2013-05-21 02:37:00,
2013-05-20 20:42:00,46.3,41.1,29.98,SSW,202,3.0,4.0,82,0.00,,,0.55,0,Wunderground v.1.15,2013-05-21 02:42:00,
2013-05-20 20:47:00,46.3,41.1,29.98,SSW,202,1.0,4.0,82,0.00,,,0.55,0,Wunderground v.1.15,2013-05-21 02:47:00,
2013-05-20 20:52:00,46.3,41.1,29.98,SSW,202,0.0,2.0,82,0.00,,,0.55,0,Wunderground v.1.15,2013-05-21 02:52:00,
2013-05-20 20:57:00,46.2,41.0,29.98,SSW,202,1.0,3.0,82,0.00,,,0.55,0,Wunderground v.1.15,2013-05-21 02:57:00,
2013-05-20 21:02:00,46.1,40.6,29.98,SSW,202,2.0,3.0,81,0.00,,,0.55,0,Wunderground v.1.15,2013-05-21 03:02:00,
2013-05-20 21:08:00,45.8,40.6,29.98,SSW,202,1.0,4.0,82,0.00,,,0.55,0,Wunderground v.1.15,2013-05-21 03:08:00,
2013-05-20 21:13:00,45.6,40.4,29.98,SSW,202,3.0,4.0,82,0.00,,,0.55,0,Wunderground v.1.15,2013-05-21 03:13:00,
2013-05-20 21:18:00,45.3,40.1,29.98,WSW,250,3.0,7.0,82,0.00,,,0.55,0,Wunderground v.1.15,2013-05-21 03:18:00,
2013-05-20 21:23:00,45.0,39.8,29.98,WSW,250,3.0,4.0,82,0.00,,,0.55,0,Wunderground v.1.15,2013-05-21 03:23:00,
2013-05-20 21:28:00,44.8,39.6,29.98,WSW,250,0.0,4.0,82,0.00,,,0.55,0,Wunderground v.1.15,2013-05-21 03:28:00,
2013-05-20 21:33:00,44.7,39.2,29.98,WSW,250,0.0,3.0,81,0.00,,,0.55,0,Wunderground v.1.15,2013-05-21 03:33:00,
2013-05-20 21:38:00,44.5,39.0,29.98,WSW,250,1.0,3.0,81,0.00,,,0.55,0,Wunderground v.1.15,2013-05-21 03:38:00,
2013-05-20 21:43:00,44.5,39.3,29.98,WSW,250,1.0,2.0,82,0.00,,,0.55,0,Wunderground v.1.15,2013-05-21 03:43:00,
2013-05-20 21:48:00,44.3,38.8,29.98,WSW,250,3.0,3.0,81,0.00,,,0.55,0,Wunderground v.1.15,2013-05-21 03:48:00,
2013-05-20 21:53:00,44.2,38.7,29.98,WSW,251,4.0,7.0,81,0.00,,,0.55,0,Wunderground v.1.15,2013-05-21 03:53:00,
2013-05-20 21:58:00,44.0,38.9,29.98,WSW,251,4.0,7.0,82,0.00,,,0.55,0,Wunderground v.1.15,2013-05-21 03:58:00,
2013-05-20 22:01:00,43.9,38.8,29.98,WSW,251,3.0,5.0,82,0.00,,,0.55,0,Wunderground v.1.15,2013-05-21 04:01:00,
2013-05-20 22:02:00,43.9,38.8,29.98,WSW,251,1.0,5.0,82,0.00,,,0.55,0,Wunderground v.1.15,2013-05-21 04:02:00,
2013-05-20 22:07:00,43.7,38.6,29.99,WSW,251,4.0,5.0,82,0.00,,,0.55,0,Wunderground v.1.15,2013-05-21 04:07:00,
2013-05-20 22:12:00,43.6,38.5,29.99,WSW,251,2.0,5.0,82,0.00,,,0.55,0,Wunderground v.1.15,2013-05-21 04:12:00,
2013-05-20 22:17:00,43.4,38.3,29.98,WSW,253,3.0,5.0,82,0.00,,,0.55,0,Wunderground v.1.15,2013-05-21 04:17:00,
2013-05-20 22:22:00,43.3,38.2,29.99,WSW,253,3.0,4.0,82,0.00,,,0.55,0,Wunderground v.1.15,2013-05-21 04:22:00,
2013-05-20 22:27:00,43.3,38.2,29.99,WSW,252,2.0,4.0,82,0.00,,,0.55,0,Wunderground v.1.15,2013-05-21 04:27:00,
2013-05-20 22:33:00,43.3,38.5,29.99,WSW,253,0.0,3.0,83,0.00,,,0.55,0,Wunderground v.1.15,2013-05-21 04:33:00,
2013-05-20 22:38:00,43.3,38.5,29.99,WSW,252,0.0,3.0,83,0.00,,,0.55,0,Wunderground v.1.15,2013-05-21 04:38:00,
2013-05-20 22:43:00,43.3,38.8,29.99,WSW,253,3.0,4.0,84,0.00,,,0.55,0,Wunderground v.1.15,2013-05-21 04:43:00,
2013-05-20 22:48:00,43.3,39.1,29.99,WSW,253,1.0,4.0,85,0.00,,,0.55,0,Wunderground v.1.15,2013-05-21 04:48:00,
2013-05-20 22:53:00,43.3,39.1,29.99,WSW,253,2.0,3.0,85,0.00,,,0.55,0,Wunderground v.1.15,2013-05-21 04:53:00,
2013-05-20 22:58:00,43.3,39.1,29.99,WSW,252,1.0,4.0,85,0.00,,,0.55,0,Wunderground v.1.15,2013-05-21 04:58:00,
2013-05-20 23:04:00,43.4,39.2,29.99,WSW,252,0.0,2.0,85,0.00,,,0.55,0,Wunderground v.1.15,2013-05-21 05:04:00,
2013-05-20 23:09:00,43.5,39.0,29.99,WSW,253,5.0,5.0,84,0.00,,,0.55,0,Wunderground v.1.15,2013-05-21 05:09:00,
2013-05-20 23:14:00,43.5,39.0,29.98,WSW,252,3.0,4.0,84,0.00,,,0.55,0,Wunderground v.1.15,2013-05-21 05:14:00,
2013-05-20 23:19:00,43.6,38.8,29.98,WSW,252,2.0,4.0,83,0.00,,,0.55,0,Wunderground v.1.15,2013-05-21 05:19:00,
2013-05-20 23:24:00,43.9,38.8,29.98,WSW,253,2.0,3.0,82,0.00,,,0.55,0,Wunderground v.1.15,2013-05-21 05:24:00,
2013-05-20 23:29:00,44.1,38.6,29.98,WSW,253,0.0,3.0,81,0.00,,,0.55,0,Wunderground v.1.15,2013-05-21 05:29:00,
2013-05-20 23:34:00,44.2,38.7,29.98,WSW,252,2.0,2.0,81,0.00,,,0.55,0,Wunderground v.1.15,2013-05-21 05:34:00,
2013-05-20 23:39:00,44.2,38.7,29.98,WSW,253,2.0,2.0,81,0.00,,,0.55,0,Wunderground v.1.15,2013-05-21 05:39:00,
2013-05-20 23:44:00,44.2,39.1,29.98,WSW,253,1.0,2.0,82,0.00,,,0.55,0,Wunderground v.1.15,2013-05-21 05:44:00,
2013-05-20 23:49:00,44.2,39.1,29.97,WSW,253,0.0,2.0,82,0.00,,,0.55,0,Wunderground v.1.15,2013-05-21 05:49:00,
2013-05-20 23:55:00,44.1,39.0,29.97,WSW,252,0.0,1.0,82,0.00,,,0.55,0,Wunderground v.1.15,2013-05-21 05:55:00,